sensor_id;sensor_type;location;lat;lon;timestamp;temperature;humidity
15426;DHT22;7812;50.072;7.036;2022-09-12T00:00:42;12.70;99.90
15426;DHT22;7812;50.072;7.036;2022-09-12T00:03:08;12.70;99.90
15426;DHT22;7812;50.072;7.036;2022-09-12T00:05:40;12.60;99.90
15426;DHT22;7812;50.072;7.036;2022-09-12T00:08:06;12.60;99.90
15426;DHT22;7812;50.072;7.036;2022-09-12T00:10:32;12.50;99.90
15426;DHT22;7812;50.072;7.036;2022-09-12T00:12:58;12.50;99.90
15426;DHT22;7812;50.072;7.036;2022-09-12T00:15:24;12.50;99.90
15426;DHT22;7812;50.072;7.036;2022-09-12T00:17:49;12.40;99.90
15426;DHT22;7812;50.072;7.036;2022-09-12T00:20:15;12.40;99.90
15426;DHT22;7812;50.072;7.036;2022-09-12T00:22:41;12.40;99.90
15426;DHT22;7812;50.072;7.036;2022-09-12T00:25:07;12.30;99.90
15426;DHT22;7812;50.072;7.036;2022-09-12T00:27:33;12.30;99.90
15426;DHT22;7812;50.072;7.036;2022-09-12T00:29:59;12.20;99.90
15426;DHT22;7812;50.072;7.036;2022-09-12T00:32:25;12.10;99.90
15426;DHT22;7812;50.072;7.036;2022-09-12T00:34:51;12.10;99.90
15426;DHT22;7812;50.072;7.036;2022-09-12T00:37:17;12.00;99.90
15426;DHT22;7812;50.072;7.036;2022-09-12T00:39:42;12.00;99.90
15426;DHT22;7812;50.072;7.036;2022-09-12T00:42:10;12.00;99.90
15426;DHT22;7812;50.072;7.036;2022-09-12T00:47:17;12.00;99.90
15426;DHT22;7812;50.072;7.036;2022-09-12T00:49:51;12.10;99.90
15426;DHT22;7812;50.072;7.036;2022-09-12T00:52:43;12.10;99.90
15426;DHT22;7812;50.072;7.036;2022-09-12T00:55:23;12.10;99.90
15426;DHT22;7812;50.072;7.036;2022-09-12T00:57:59;12.20;99.90
15426;DHT22;7812;50.072;7.036;2022-09-12T01:00:27;12.10;99.90
15426;DHT22;7812;50.072;7.036;2022-09-12T01:02:59;12.10;99.90
15426;DHT22;7812;50.072;7.036;2022-09-12T01:05:27;12.00;99.90
15426;DHT22;7812;50.072;7.036;2022-09-12T01:07:55;11.90;99.90
15426;DHT22;7812;50.072;7.036;2022-09-12T01:10:23;11.80;99.90
15426;DHT22;7812;50.072;7.036;2022-09-12T01:12:49;11.80;99.90
15426;DHT22;7812;50.072;7.036;2022-09-12T01:15:15;11.80;99.90
15426;DHT22;7812;50.072;7.036;2022-09-12T01:32:31;11.60;99.90
15426;DHT22;7812;50.072;7.036;2022-09-12T01:43:54;11.50;99.90
15426;DHT22;7812;50.072;7.036;2022-09-12T01:49:18;11.50;99.90
15426;DHT22;7812;50.072;7.036;2022-09-12T01:52:01;11.60;99.90
15426;DHT22;7812;50.072;7.036;2022-09-12T01:54:44;11.60;99.90
15426;DHT22;7812;50.072;7.036;2022-09-12T01:57:24;11.60;99.90
15426;DHT22;7812;50.072;7.036;2022-09-12T01:59:55;11.60;99.90
15426;DHT22;7812;50.072;7.036;2022-09-12T02:02:33;11.60;99.90
15426;DHT22;7812;50.072;7.036;2022-09-12T02:07:44;11.50;99.90
15426;DHT22;7812;50.072;7.036;2022-09-12T02:10:18;11.60;99.90
15426;DHT22;7812;50.072;7.036;2022-09-12T02:12:53;11.50;99.90
15426;DHT22;7812;50.072;7.036;2022-09-12T02:15:23;11.50;99.90
15426;DHT22;7812;50.072;7.036;2022-09-12T02:17:51;11.50;99.90
15426;DHT22;7812;50.072;7.036;2022-09-12T02:20:25;11.40;99.90
15426;DHT22;7812;50.072;7.036;2022-09-12T02:22:55;11.30;99.90
15426;DHT22;7812;50.072;7.036;2022-09-12T02:25:23;11.30;99.90
15426;DHT22;7812;50.072;7.036;2022-09-12T02:27:58;11.20;99.90
15426;DHT22;7812;50.072;7.036;2022-09-12T02:30:24;11.20;99.90
15426;DHT22;7812;50.072;7.036;2022-09-12T02:33:00;11.20;99.90
15426;DHT22;7812;50.072;7.036;2022-09-12T02:35:47;11.20;99.90
15426;DHT22;7812;50.072;7.036;2022-09-12T02:38:47;11.20;99.90
15426;DHT22;7812;50.072;7.036;2022-09-12T02:41:16;11.20;99.90
15426;DHT22;7812;50.072;7.036;2022-09-12T02:43:44;11.10;99.90
15426;DHT22;7812;50.072;7.036;2022-09-12T02:46:21;11.00;99.90
15426;DHT22;7812;50.072;7.036;2022-09-12T02:48:48;11.10;99.90
15426;DHT22;7812;50.072;7.036;2022-09-12T02:51:14;11.00;99.90
15426;DHT22;7812;50.072;7.036;2022-09-12T02:53:41;11.00;99.90
15426;DHT22;7812;50.072;7.036;2022-09-12T02:56:10;11.00;99.90
15426;DHT22;7812;50.072;7.036;2022-09-12T02:58:36;11.00;99.90
15426;DHT22;7812;50.072;7.036;2022-09-12T03:04:09;10.90;99.90
15426;DHT22;7812;50.072;7.036;2022-09-12T03:06:52;10.90;99.90
15426;DHT22;7812;50.072;7.036;2022-09-12T03:09:35;10.90;99.90
15426;DHT22;7812;50.072;7.036;2022-09-12T03:12:30;10.90;99.90
15426;DHT22;7812;50.072;7.036;2022-09-12T03:17:56;10.80;99.90
15426;DHT22;7812;50.072;7.036;2022-09-12T03:20:47;10.80;99.90
15426;DHT22;7812;50.072;7.036;2022-09-12T03:23:37;10.90;99.90
15426;DHT22;7812;50.072;7.036;2022-09-12T03:26:19;10.80;99.90
15426;DHT22;7812;50.072;7.036;2022-09-12T03:28:46;10.80;99.90
15426;DHT22;7812;50.072;7.036;2022-09-12T03:31:17;10.70;99.90
15426;DHT22;7812;50.072;7.036;2022-09-12T03:33:44;10.70;99.90
15426;DHT22;7812;50.072;7.036;2022-09-12T03:36:21;10.70;99.90
15426;DHT22;7812;50.072;7.036;2022-09-12T03:38:48;10.70;99.90
15426;DHT22;7812;50.072;7.036;2022-09-12T03:41:14;10.70;99.90
15426;DHT22;7812;50.072;7.036;2022-09-12T03:43:40;10.70;99.90
15426;DHT22;7812;50.072;7.036;2022-09-12T03:46:06;10.60;99.90
15426;DHT22;7812;50.072;7.036;2022-09-12T03:48:32;10.60;99.90
15426;DHT22;7812;50.072;7.036;2022-09-12T03:51:03;10.60;99.90
15426;DHT22;7812;50.072;7.036;2022-09-12T03:53:30;10.60;99.90
15426;DHT22;7812;50.072;7.036;2022-09-12T03:55:56;10.60;99.90
15426;DHT22;7812;50.072;7.036;2022-09-12T03:58:23;10.60;99.90
15426;DHT22;7812;50.072;7.036;2022-09-12T04:00:49;10.50;99.90
15426;DHT22;7812;50.072;7.036;2022-09-12T04:03:16;10.50;99.90
15426;DHT22;7812;50.072;7.036;2022-09-12T04:05:43;10.50;99.90
15426;DHT22;7812;50.072;7.036;2022-09-12T04:08:10;10.40;99.90
15426;DHT22;7812;50.072;7.036;2022-09-12T04:10:36;10.40;99.90
15426;DHT22;7812;50.072;7.036;2022-09-12T04:13:02;10.40;99.90
15426;DHT22;7812;50.072;7.036;2022-09-12T04:15:28;10.40;99.90
15426;DHT22;7812;50.072;7.036;2022-09-12T04:17:54;10.40;99.90
15426;DHT22;7812;50.072;7.036;2022-09-12T04:20:20;10.30;99.90
15426;DHT22;7812;50.072;7.036;2022-09-12T04:22:45;10.30;99.90
15426;DHT22;7812;50.072;7.036;2022-09-12T04:25:11;10.30;99.90
15426;DHT22;7812;50.072;7.036;2022-09-12T04:27:38;10.30;99.90
15426;DHT22;7812;50.072;7.036;2022-09-12T04:30:05;10.30;99.90
15426;DHT22;7812;50.072;7.036;2022-09-12T04:32:31;10.30;99.90
15426;DHT22;7812;50.072;7.036;2022-09-12T04:34:57;10.40;99.90
15426;DHT22;7812;50.072;7.036;2022-09-12T04:37:23;10.30;99.90
15426;DHT22;7812;50.072;7.036;2022-09-12T04:39:49;10.30;99.90
15426;DHT22;7812;50.072;7.036;2022-09-12T04:42:16;10.20;99.90
15426;DHT22;7812;50.072;7.036;2022-09-12T04:44:42;10.10;99.90
15426;DHT22;7812;50.072;7.036;2022-09-12T04:47:08;10.10;99.90
15426;DHT22;7812;50.072;7.036;2022-09-12T04:49:34;10.20;99.90
15426;DHT22;7812;50.072;7.036;2022-09-12T04:52:00;10.20;99.90
15426;DHT22;7812;50.072;7.036;2022-09-12T04:54:26;10.20;99.90
15426;DHT22;7812;50.072;7.036;2022-09-12T04:56:52;10.20;99.90
15426;DHT22;7812;50.072;7.036;2022-09-12T04:59:20;10.30;99.90
15426;DHT22;7812;50.072;7.036;2022-09-12T05:01:46;10.20;99.90
15426;DHT22;7812;50.072;7.036;2022-09-12T05:04:13;10.30;99.90
15426;DHT22;7812;50.072;7.036;2022-09-12T05:06:40;10.30;99.90
15426;DHT22;7812;50.072;7.036;2022-09-12T05:09:10;10.20;99.90
15426;DHT22;7812;50.072;7.036;2022-09-12T05:11:38;10.20;99.90
15426;DHT22;7812;50.072;7.036;2022-09-12T05:14:04;10.10;99.90
15426;DHT22;7812;50.072;7.036;2022-09-12T05:16:30;10.10;99.90
15426;DHT22;7812;50.072;7.036;2022-09-12T05:18:57;10.10;99.90
15426;DHT22;7812;50.072;7.036;2022-09-12T05:21:24;10.20;99.90
15426;DHT22;7812;50.072;7.036;2022-09-12T05:23:52;10.20;99.90
15426;DHT22;7812;50.072;7.036;2022-09-12T05:26:19;10.20;99.90
15426;DHT22;7812;50.072;7.036;2022-09-12T05:28:46;10.20;99.90
15426;DHT22;7812;50.072;7.036;2022-09-12T05:31:22;10.20;99.90
15426;DHT22;7812;50.072;7.036;2022-09-12T05:33:49;10.20;99.90
15426;DHT22;7812;50.072;7.036;2022-09-12T05:36:17;10.30;99.90
15426;DHT22;7812;50.072;7.036;2022-09-12T05:38:44;10.30;99.90
15426;DHT22;7812;50.072;7.036;2022-09-12T05:41:14;10.40;99.90
15426;DHT22;7812;50.072;7.036;2022-09-12T05:43:41;10.50;99.90
15426;DHT22;7812;50.072;7.036;2022-09-12T05:46:12;10.60;99.90
15426;DHT22;7812;50.072;7.036;2022-09-12T05:48:39;10.70;99.90
15426;DHT22;7812;50.072;7.036;2022-09-12T05:51:16;10.80;99.90
15426;DHT22;7812;50.072;7.036;2022-09-12T05:53:45;10.80;99.90
15426;DHT22;7812;50.072;7.036;2022-09-12T05:56:14;11.00;99.90
15426;DHT22;7812;50.072;7.036;2022-09-12T05:58:43;11.00;99.90
15426;DHT22;7812;50.072;7.036;2022-09-12T06:01:11;11.10;99.90
15426;DHT22;7812;50.072;7.036;2022-09-12T06:03:46;11.20;99.90
15426;DHT22;7812;50.072;7.036;2022-09-12T06:06:13;11.20;99.90
15426;DHT22;7812;50.072;7.036;2022-09-12T06:08:41;11.40;99.90
15426;DHT22;7812;50.072;7.036;2022-09-12T06:11:09;11.80;99.90
15426;DHT22;7812;50.072;7.036;2022-09-12T06:13:37;12.40;99.90
15426;DHT22;7812;50.072;7.036;2022-09-12T06:16:17;12.80;99.90
15426;DHT22;7812;50.072;7.036;2022-09-12T06:18:51;13.00;99.90
15426;DHT22;7812;50.072;7.036;2022-09-12T06:21:19;12.80;99.90
15426;DHT22;7812;50.072;7.036;2022-09-12T06:23:45;12.90;99.90
15426;DHT22;7812;50.072;7.036;2022-09-12T06:26:13;12.90;99.90
15426;DHT22;7812;50.072;7.036;2022-09-12T06:28:42;12.80;99.90
15426;DHT22;7812;50.072;7.036;2022-09-12T06:31:15;12.80;99.90
15426;DHT22;7812;50.072;7.036;2022-09-12T06:33:44;13.10;99.90
15426;DHT22;7812;50.072;7.036;2022-09-12T06:36:12;13.70;99.90
15426;DHT22;7812;50.072;7.036;2022-09-12T06:38:39;14.50;99.90
15426;DHT22;7812;50.072;7.036;2022-09-12T06:41:07;15.60;99.90
15426;DHT22;7812;50.072;7.036;2022-09-12T06:43:34;16.80;99.90
15426;DHT22;7812;50.072;7.036;2022-09-12T06:46:00;17.40;99.90
15426;DHT22;7812;50.072;7.036;2022-09-12T06:48:27;17.10;99.90
15426;DHT22;7812;50.072;7.036;2022-09-12T06:51:08;17.00;99.90
15426;DHT22;7812;50.072;7.036;2022-09-12T06:53:35;17.30;99.90
15426;DHT22;7812;50.072;7.036;2022-09-12T06:56:11;17.90;99.90
15426;DHT22;7812;50.072;7.036;2022-09-12T06:58:38;17.80;99.90
15426;DHT22;7812;50.072;7.036;2022-09-12T07:03:32;16.80;99.90
15426;DHT22;7812;50.072;7.036;2022-09-12T07:06:05;17.70;99.90
15426;DHT22;7812;50.072;7.036;2022-09-12T07:08:33;18.90;99.90
15426;DHT22;7812;50.072;7.036;2022-09-12T07:11:08;19.60;99.90
15426;DHT22;7812;50.072;7.036;2022-09-12T07:13:34;20.40;99.90
15426;DHT22;7812;50.072;7.036;2022-09-12T07:16:04;20.10;99.90
15426;DHT22;7812;50.072;7.036;2022-09-12T07:18:33;20.00;99.90
15426;DHT22;7812;50.072;7.036;2022-09-12T07:21:00;19.90;99.90
15426;DHT22;7812;50.072;7.036;2022-09-12T07:23:27;20.30;99.90
15426;DHT22;7812;50.072;7.036;2022-09-12T07:25:55;19.50;99.90
15426;DHT22;7812;50.072;7.036;2022-09-12T07:28:23;21.10;99.90
15426;DHT22;7812;50.072;7.036;2022-09-12T07:30:49;22.60;99.90
15426;DHT22;7812;50.072;7.036;2022-09-12T07:33:27;23.30;99.90
15426;DHT22;7812;50.072;7.036;2022-09-12T07:35:54;23.70;99.90
15426;DHT22;7812;50.072;7.036;2022-09-12T07:38:20;24.60;99.90
15426;DHT22;7812;50.072;7.036;2022-09-12T07:40:46;25.40;99.90
15426;DHT22;7812;50.072;7.036;2022-09-12T07:43:12;25.90;99.90
15426;DHT22;7812;50.072;7.036;2022-09-12T07:45:38;26.70;99.90
15426;DHT22;7812;50.072;7.036;2022-09-12T07:48:07;27.50;99.90
15426;DHT22;7812;50.072;7.036;2022-09-12T07:50:33;27.50;99.90
15426;DHT22;7812;50.072;7.036;2022-09-12T07:53:02;27.20;99.90
15426;DHT22;7812;50.072;7.036;2022-09-12T07:55:28;27.10;99.90
15426;DHT22;7812;50.072;7.036;2022-09-12T07:57:54;26.60;99.90
15426;DHT22;7812;50.072;7.036;2022-09-12T08:00:20;26.10;99.90
15426;DHT22;7812;50.072;7.036;2022-09-12T08:02:50;25.60;99.90
15426;DHT22;7812;50.072;7.036;2022-09-12T08:05:17;24.90;99.90
15426;DHT22;7812;50.072;7.036;2022-09-12T08:07:43;24.70;99.90
15426;DHT22;7812;50.072;7.036;2022-09-12T08:10:09;24.60;99.90
15426;DHT22;7812;50.072;7.036;2022-09-12T08:12:35;25.00;99.90
15426;DHT22;7812;50.072;7.036;2022-09-12T08:15:01;25.50;99.90
15426;DHT22;7812;50.072;7.036;2022-09-12T08:17:27;26.30;99.90
15426;DHT22;7812;50.072;7.036;2022-09-12T08:19:54;27.70;99.90
15426;DHT22;7812;50.072;7.036;2022-09-12T08:22:21;27.40;99.90
15426;DHT22;7812;50.072;7.036;2022-09-12T08:24:47;27.90;99.90
15426;DHT22;7812;50.072;7.036;2022-09-12T08:27:14;28.70;99.90
15426;DHT22;7812;50.072;7.036;2022-09-12T08:29:40;27.30;99.90
15426;DHT22;7812;50.072;7.036;2022-09-12T08:32:06;26.90;99.90
15426;DHT22;7812;50.072;7.036;2022-09-12T08:34:33;26.90;99.90
15426;DHT22;7812;50.072;7.036;2022-09-12T08:36:58;26.40;99.90
15426;DHT22;7812;50.072;7.036;2022-09-12T08:39:24;26.60;99.90
15426;DHT22;7812;50.072;7.036;2022-09-12T08:42:14;28.60;99.90
15426;DHT22;7812;50.072;7.036;2022-09-12T08:47:37;30.80;99.90
15426;DHT22;7812;50.072;7.036;2022-09-12T08:55:35;28.50;99.90
15426;DHT22;7812;50.072;7.036;2022-09-12T08:58:19;25.90;99.90
15426;DHT22;7812;50.072;7.036;2022-09-12T09:01:05;27.40;99.90
15426;DHT22;7812;50.072;7.036;2022-09-12T09:15:20;31.60;99.90
15426;DHT22;7812;50.072;7.036;2022-09-12T09:18:07;30.70;99.90
15426;DHT22;7812;50.072;7.036;2022-09-12T09:20:50;31.00;99.90
15426;DHT22;7812;50.072;7.036;2022-09-12T09:26:14;30.10;99.90
15426;DHT22;7812;50.072;7.036;2022-09-12T09:29:10;27.90;99.90
15426;DHT22;7812;50.072;7.036;2022-09-12T09:31:38;28.20;99.90
15426;DHT22;7812;50.072;7.036;2022-09-12T09:34:17;27.40;99.90
15426;DHT22;7812;50.072;7.036;2022-09-12T09:42:22;28.40;99.90
15426;DHT22;7812;50.072;7.036;2022-09-12T09:44:52;28.20;99.90
15426;DHT22;7812;50.072;7.036;2022-09-12T09:47:20;29.50;99.90
15426;DHT22;7812;50.072;7.036;2022-09-12T09:49:47;28.60;99.90
15426;DHT22;7812;50.072;7.036;2022-09-12T09:52:19;28.40;99.90
15426;DHT22;7812;50.072;7.036;2022-09-12T09:54:54;29.40;99.90
15426;DHT22;7812;50.072;7.036;2022-09-12T10:08:19;31.40;99.90
15426;DHT22;7812;50.072;7.036;2022-09-12T10:10:54;31.90;99.90
15426;DHT22;7812;50.072;7.036;2022-09-12T10:13:42;32.30;99.90
15426;DHT22;7812;50.072;7.036;2022-09-12T10:16:20;32.30;99.90
15426;DHT22;7812;50.072;7.036;2022-09-12T10:18:48;32.00;99.90
15426;DHT22;7812;50.072;7.036;2022-09-12T10:21:29;32.90;99.90
15426;DHT22;7812;50.072;7.036;2022-09-12T10:26:50;31.10;99.90
15426;DHT22;7812;50.072;7.036;2022-09-12T10:29:31;31.60;99.90
15426;DHT22;7812;50.072;7.036;2022-09-12T10:32:00;32.00;99.90
15426;DHT22;7812;50.072;7.036;2022-09-12T10:34:35;31.00;99.90
15426;DHT22;7812;50.072;7.036;2022-09-12T10:37:07;31.30;99.90
15426;DHT22;7812;50.072;7.036;2022-09-12T10:39:34;31.30;99.90
15426;DHT22;7812;50.072;7.036;2022-09-12T10:42:03;31.20;99.90
15426;DHT22;7812;50.072;7.036;2022-09-12T10:44:34;32.20;99.90
15426;DHT22;7812;50.072;7.036;2022-09-12T10:47:19;33.30;99.90
15426;DHT22;7812;50.072;7.036;2022-09-12T10:49:46;33.10;99.90
15426;DHT22;7812;50.072;7.036;2022-09-12T10:52:23;32.20;99.90
15426;DHT22;7812;50.072;7.036;2022-09-12T10:54:50;30.60;99.90
15426;DHT22;7812;50.072;7.036;2022-09-12T11:03:13;30.80;99.90
15426;DHT22;7812;50.072;7.036;2022-09-12T11:05:59;33.10;99.90
15426;DHT22;7812;50.072;7.036;2022-09-12T11:26:01;32.70;97.10
15426;DHT22;7812;50.072;7.036;2022-09-12T11:31:21;31.70;96.20
15426;DHT22;7812;50.072;7.036;2022-09-12T11:33:50;33.20;96.00
15426;DHT22;7812;50.072;7.036;2022-09-12T11:36:32;33.10;95.30
15426;DHT22;7812;50.072;7.036;2022-09-12T11:41:43;30.40;97.00
15426;DHT22;7812;50.072;7.036;2022-09-12T11:44:32;29.60;98.10
15426;DHT22;7812;50.072;7.036;2022-09-12T11:47:04;29.60;98.70
15426;DHT22;7812;50.072;7.036;2022-09-12T11:49:38;31.30;97.70
15426;DHT22;7812;50.072;7.036;2022-09-12T11:52:13;31.40;95.90
15426;DHT22;7812;50.072;7.036;2022-09-12T12:02:40;34.80;92.70
15426;DHT22;7812;50.072;7.036;2022-09-12T12:08:01;34.20;92.30
15426;DHT22;7812;50.072;7.036;2022-09-12T12:11:11;35.50;90.50
15426;DHT22;7812;50.072;7.036;2022-09-12T12:16:26;32.60;90.80
15426;DHT22;7812;50.072;7.036;2022-09-12T12:18:59;33.70;91.60
15426;DHT22;7812;50.072;7.036;2022-09-12T12:26:57;31.50;92.80
15426;DHT22;7812;50.072;7.036;2022-09-12T12:29:42;31.00;93.40
15426;DHT22;7812;50.072;7.036;2022-09-12T12:34:42;30.90;93.40
15426;DHT22;7812;50.072;7.036;2022-09-12T12:45:00;28.70;95.40
15426;DHT22;7812;50.072;7.036;2022-09-12T12:47:31;29.00;96.00
15426;DHT22;7812;50.072;7.036;2022-09-12T12:52:51;31.40;94.80
15426;DHT22;7812;50.072;7.036;2022-09-12T12:57:55;30.90;94.30
15426;DHT22;7812;50.072;7.036;2022-09-12T13:05:37;30.70;95.00
15426;DHT22;7812;50.072;7.036;2022-09-12T13:11:01;32.30;92.40
15426;DHT22;7812;50.072;7.036;2022-09-12T13:13:43;30.00;92.30
15426;DHT22;7812;50.072;7.036;2022-09-12T13:16:28;29.90;94.10
15426;DHT22;7812;50.072;7.036;2022-09-12T13:18:56;30.40;93.10
15426;DHT22;7812;50.072;7.036;2022-09-12T13:21:26;30.50;92.00
15426;DHT22;7812;50.072;7.036;2022-09-12T13:24:01;30.20;92.30
15426;DHT22;7812;50.072;7.036;2022-09-12T13:26:33;30.80;92.10
15426;DHT22;7812;50.072;7.036;2022-09-12T13:31:41;31.70;92.20
15426;DHT22;7812;50.072;7.036;2022-09-12T13:34:08;31.10;92.20
15426;DHT22;7812;50.072;7.036;2022-09-12T13:42:40;30.20;92.20
15426;DHT22;7812;50.072;7.036;2022-09-12T13:47:56;30.20;91.50
15426;DHT22;7812;50.072;7.036;2022-09-12T13:50:24;30.60;91.10
15426;DHT22;7812;50.072;7.036;2022-09-12T13:52:57;30.90;90.60
15426;DHT22;7812;50.072;7.036;2022-09-12T13:55:41;30.30;90.80
15426;DHT22;7812;50.072;7.036;2022-09-12T14:00:42;29.80;91.70
15426;DHT22;7812;50.072;7.036;2022-09-12T14:03:39;29.40;91.70
15426;DHT22;7812;50.072;7.036;2022-09-12T14:06:24;29.60;91.90
15426;DHT22;7812;50.072;7.036;2022-09-12T14:08:51;28.30;92.10
15426;DHT22;7812;50.072;7.036;2022-09-12T14:11:24;28.20;92.50
15426;DHT22;7812;50.072;7.036;2022-09-12T14:13:51;28.10;92.90
15426;DHT22;7812;50.072;7.036;2022-09-12T14:16:18;28.30;93.40
15426;DHT22;7812;50.072;7.036;2022-09-12T14:18:46;28.60;93.90
15426;DHT22;7812;50.072;7.036;2022-09-12T14:21:30;28.60;93.20
15426;DHT22;7812;50.072;7.036;2022-09-12T14:23:58;28.40;93.40
15426;DHT22;7812;50.072;7.036;2022-09-12T14:26:27;28.60;92.40
15426;DHT22;7812;50.072;7.036;2022-09-12T14:28:57;28.90;92.90
15426;DHT22;7812;50.072;7.036;2022-09-12T14:31:32;28.60;93.50
15426;DHT22;7812;50.072;7.036;2022-09-12T14:34:13;28.30;92.70
15426;DHT22;7812;50.072;7.036;2022-09-12T14:36:45;27.90;93.00
15426;DHT22;7812;50.072;7.036;2022-09-12T14:41:48;27.90;93.00
15426;DHT22;7812;50.072;7.036;2022-09-12T14:44:23;27.90;94.30
15426;DHT22;7812;50.072;7.036;2022-09-12T14:46:50;27.90;94.30
15426;DHT22;7812;50.072;7.036;2022-09-12T14:49:33;27.90;94.10
15426;DHT22;7812;50.072;7.036;2022-09-12T14:52:14;27.70;93.50
15426;DHT22;7812;50.072;7.036;2022-09-12T14:57:41;27.00;94.00
15426;DHT22;7812;50.072;7.036;2022-09-12T15:02:38;26.50;95.30
15426;DHT22;7812;50.072;7.036;2022-09-12T15:07:40;26.70;94.90
15426;DHT22;7812;50.072;7.036;2022-09-12T15:10:26;26.70;94.30
15426;DHT22;7812;50.072;7.036;2022-09-12T15:13:16;26.20;94.40
15426;DHT22;7812;50.072;7.036;2022-09-12T15:15:48;26.10;95.00
15426;DHT22;7812;50.072;7.036;2022-09-12T15:18:14;26.00;95.40
15426;DHT22;7812;50.072;7.036;2022-09-12T15:20:42;26.20;95.80
15426;DHT22;7812;50.072;7.036;2022-09-12T15:23:15;26.20;96.10
15426;DHT22;7812;50.072;7.036;2022-09-12T15:25:42;26.30;97.00
15426;DHT22;7812;50.072;7.036;2022-09-12T15:28:22;26.60;94.90
15426;DHT22;7812;50.072;7.036;2022-09-12T15:30:53;26.70;95.40
15426;DHT22;7812;50.072;7.036;2022-09-12T15:33:22;26.70;95.90
15426;DHT22;7812;50.072;7.036;2022-09-12T15:35:48;26.50;95.70
15426;DHT22;7812;50.072;7.036;2022-09-12T15:38:14;26.40;96.40
15426;DHT22;7812;50.072;7.036;2022-09-12T15:40:41;26.20;96.60
15426;DHT22;7812;50.072;7.036;2022-09-12T15:43:09;26.10;96.50
15426;DHT22;7812;50.072;7.036;2022-09-12T15:45:37;26.10;96.70
15426;DHT22;7812;50.072;7.036;2022-09-12T15:48:03;26.10;97.20
15426;DHT22;7812;50.072;7.036;2022-09-12T15:50:29;26.10;96.20
15426;DHT22;7812;50.072;7.036;2022-09-12T15:52:56;26.10;96.00
15426;DHT22;7812;50.072;7.036;2022-09-12T15:55:26;25.70;95.20
15426;DHT22;7812;50.072;7.036;2022-09-12T15:57:52;26.00;94.80
15426;DHT22;7812;50.072;7.036;2022-09-12T16:00:19;26.20;95.30
15426;DHT22;7812;50.072;7.036;2022-09-12T16:02:46;26.00;96.00
15426;DHT22;7812;50.072;7.036;2022-09-12T16:05:23;25.90;95.40
15426;DHT22;7812;50.072;7.036;2022-09-12T16:07:53;25.90;96.50
15426;DHT22;7812;50.072;7.036;2022-09-12T16:10:25;25.80;98.60
15426;DHT22;7812;50.072;7.036;2022-09-12T16:12:52;25.70;99.90
15426;DHT22;7812;50.072;7.036;2022-09-12T16:15:23;25.60;99.90
15426;DHT22;7812;50.072;7.036;2022-09-12T16:17:49;25.20;98.80
15426;DHT22;7812;50.072;7.036;2022-09-12T16:20:16;25.10;98.60
15426;DHT22;7812;50.072;7.036;2022-09-12T16:22:43;25.10;99.90
15426;DHT22;7812;50.072;7.036;2022-09-12T16:25:09;24.90;99.90
15426;DHT22;7812;50.072;7.036;2022-09-12T16:27:36;24.80;99.90
15426;DHT22;7812;50.072;7.036;2022-09-12T16:30:03;24.60;99.90
15426;DHT22;7812;50.072;7.036;2022-09-12T16:32:29;24.50;99.90
15426;DHT22;7812;50.072;7.036;2022-09-12T16:34:55;24.30;99.90
15426;DHT22;7812;50.072;7.036;2022-09-12T16:37:21;24.10;99.90
15426;DHT22;7812;50.072;7.036;2022-09-12T16:39:47;24.00;99.90
15426;DHT22;7812;50.072;7.036;2022-09-12T16:42:15;23.70;99.90
15426;DHT22;7812;50.072;7.036;2022-09-12T16:44:46;23.60;99.90
15426;DHT22;7812;50.072;7.036;2022-09-12T16:47:13;23.50;99.90
15426;DHT22;7812;50.072;7.036;2022-09-12T16:49:39;23.40;99.90
15426;DHT22;7812;50.072;7.036;2022-09-12T16:52:05;23.40;99.90
15426;DHT22;7812;50.072;7.036;2022-09-12T16:54:32;23.30;99.90
15426;DHT22;7812;50.072;7.036;2022-09-12T16:56:58;23.30;99.90
15426;DHT22;7812;50.072;7.036;2022-09-12T16:59:25;23.20;99.90
15426;DHT22;7812;50.072;7.036;2022-09-12T17:01:51;23.00;99.90
15426;DHT22;7812;50.072;7.036;2022-09-12T17:04:16;22.90;99.90
15426;DHT22;7812;50.072;7.036;2022-09-12T17:06:42;22.70;99.90
15426;DHT22;7812;50.072;7.036;2022-09-12T17:09:08;22.50;99.90
15426;DHT22;7812;50.072;7.036;2022-09-12T17:11:37;22.30;99.90
15426;DHT22;7812;50.072;7.036;2022-09-12T17:14:05;22.30;99.90
15426;DHT22;7812;50.072;7.036;2022-09-12T17:16:32;22.10;99.90
15426;DHT22;7812;50.072;7.036;2022-09-12T17:18:58;22.20;99.90
15426;DHT22;7812;50.072;7.036;2022-09-12T17:21:24;22.10;99.90
15426;DHT22;7812;50.072;7.036;2022-09-12T17:23:53;22.00;99.90
15426;DHT22;7812;50.072;7.036;2022-09-12T17:26:24;21.80;99.90
15426;DHT22;7812;50.072;7.036;2022-09-12T17:28:50;21.60;99.90
15426;DHT22;7812;50.072;7.036;2022-09-12T17:31:16;21.50;99.90
15426;DHT22;7812;50.072;7.036;2022-09-12T17:33:41;21.40;99.90
15426;DHT22;7812;50.072;7.036;2022-09-12T17:36:10;21.30;99.90
15426;DHT22;7812;50.072;7.036;2022-09-12T17:38:37;21.00;99.90
15426;DHT22;7812;50.072;7.036;2022-09-12T17:41:09;20.80;99.90
15426;DHT22;7812;50.072;7.036;2022-09-12T17:43:36;20.40;99.90
15426;DHT22;7812;50.072;7.036;2022-09-12T17:46:03;20.30;99.90
15426;DHT22;7812;50.072;7.036;2022-09-12T17:48:29;20.20;99.90
15426;DHT22;7812;50.072;7.036;2022-09-12T17:50:55;20.10;99.90
15426;DHT22;7812;50.072;7.036;2022-09-12T17:53:21;20.10;99.90
15426;DHT22;7812;50.072;7.036;2022-09-12T17:55:46;20.10;99.90
15426;DHT22;7812;50.072;7.036;2022-09-12T17:58:12;19.90;99.90
15426;DHT22;7812;50.072;7.036;2022-09-12T18:00:38;19.70;99.90
15426;DHT22;7812;50.072;7.036;2022-09-12T18:03:23;19.60;99.90
15426;DHT22;7812;50.072;7.036;2022-09-12T18:05:53;19.40;99.90
15426;DHT22;7812;50.072;7.036;2022-09-12T18:08:20;19.40;99.90
15426;DHT22;7812;50.072;7.036;2022-09-12T18:10:46;19.30;99.90
15426;DHT22;7812;50.072;7.036;2022-09-12T18:13:12;19.20;99.90
15426;DHT22;7812;50.072;7.036;2022-09-12T18:15:38;19.10;99.90
15426;DHT22;7812;50.072;7.036;2022-09-12T18:18:04;19.00;99.90
15426;DHT22;7812;50.072;7.036;2022-09-12T18:20:30;18.90;99.90
15426;DHT22;7812;50.072;7.036;2022-09-12T18:22:56;18.70;99.90
15426;DHT22;7812;50.072;7.036;2022-09-12T18:25:22;18.50;99.90
15426;DHT22;7812;50.072;7.036;2022-09-12T18:27:48;18.40;99.90
15426;DHT22;7812;50.072;7.036;2022-09-12T18:30:14;18.30;99.90
15426;DHT22;7812;50.072;7.036;2022-09-12T18:32:44;18.30;99.90
15426;DHT22;7812;50.072;7.036;2022-09-12T18:35:10;18.30;99.90
15426;DHT22;7812;50.072;7.036;2022-09-12T18:37:36;18.20;99.90
15426;DHT22;7812;50.072;7.036;2022-09-12T18:40:03;18.10;99.90
15426;DHT22;7812;50.072;7.036;2022-09-12T18:42:29;17.90;99.90
15426;DHT22;7812;50.072;7.036;2022-09-12T18:44:54;17.70;99.90
15426;DHT22;7812;50.072;7.036;2022-09-12T18:47:20;17.70;99.90
15426;DHT22;7812;50.072;7.036;2022-09-12T18:49:47;17.60;99.90
15426;DHT22;7812;50.072;7.036;2022-09-12T18:52:13;17.50;99.90
15426;DHT22;7812;50.072;7.036;2022-09-12T18:54:40;17.40;99.90
15426;DHT22;7812;50.072;7.036;2022-09-12T18:57:05;17.40;99.90
15426;DHT22;7812;50.072;7.036;2022-09-12T18:59:31;17.40;99.90
15426;DHT22;7812;50.072;7.036;2022-09-12T19:02:00;17.40;99.90